sensor_id;sensor_type;location;lat;lon;timestamp;P1;P2;P0
77320;PMS7003;66382;52.252;8.780;2023-06-24T00:00:15;6.67;6.67;6.00
77320;PMS7003;66382;52.252;8.780;2023-06-24T00:02:41;6.75;6.75;5.75
77320;PMS7003;66382;52.252;8.780;2023-06-24T00:05:07;5.33;5.33;4.33
77320;PMS7003;66382;52.252;8.780;2023-06-24T00:07:33;4.00;4.00;3.25
77320;PMS7003;66382;52.252;8.780;2023-06-24T00:10:00;8.33;7.67;6.00
77320;PMS7003;66382;52.252;8.780;2023-06-24T00:12:26;7.00;7.00;5.75
77320;PMS7003;66382;52.252;8.780;2023-06-24T00:14:52;9.33;9.33;7.00
77320;PMS7003;66382;52.252;8.780;2023-06-24T00:17:17;7.67;7.67;6.00
77320;PMS7003;66382;52.252;8.780;2023-06-24T00:19:43;5.00;5.00;5.00
77320;PMS7003;66382;52.252;8.780;2023-06-24T00:22:09;6.33;6.33;5.00
77320;PMS7003;66382;52.252;8.780;2023-06-24T00:24:35;7.33;7.33;6.33
77320;PMS7003;66382;52.252;8.780;2023-06-24T00:27:02;8.00;8.00;7.00
77320;PMS7003;66382;52.252;8.780;2023-06-24T00:29:28;7.00;7.00;5.50
77320;PMS7003;66382;52.252;8.780;2023-06-24T00:31:54;6.33;5.67;4.67
77320;PMS7003;66382;52.252;8.780;2023-06-24T00:34:19;7.00;7.00;6.25
77320;PMS7003;66382;52.252;8.780;2023-06-24T00:36:45;6.67;6.67;5.00
77320;PMS7003;66382;52.252;8.780;2023-06-24T00:39:11;6.33;6.33;5.67
77320;PMS7003;66382;52.252;8.780;2023-06-24T00:41:37;7.33;7.33;6.00
77320;PMS7003;66382;52.252;8.780;2023-06-24T00:44:04;7.33;7.00;6.00
77320;PMS7003;66382;52.252;8.780;2023-06-24T00:46:30;8.25;8.25;6.25
77320;PMS7003;66382;52.252;8.780;2023-06-24T00:48:56;9.67;9.67;6.00
77320;PMS7003;66382;52.252;8.780;2023-06-24T00:51:22;7.00;7.00;6.00
77320;PMS7003;66382;52.252;8.780;2023-06-24T00:53:48;8.50;8.50;6.00
77320;PMS7003;66382;52.252;8.780;2023-06-24T00:56:14;7.67;7.67;6.00
77320;PMS7003;66382;52.252;8.780;2023-06-24T00:58:41;8.00;8.00;6.75
77320;PMS7003;66382;52.252;8.780;2023-06-24T01:01:08;7.67;7.67;6.00
77320;PMS7003;66382;52.252;8.780;2023-06-24T01:03:35;9.50;9.50;6.75
77320;PMS7003;66382;52.252;8.780;2023-06-24T01:06:02;7.75;7.75;6.00
77320;PMS7003;66382;52.252;8.780;2023-06-24T01:08:28;6.25;6.25;5.25
77320;PMS7003;66382;52.252;8.780;2023-06-24T01:10:54;7.00;7.00;5.00
77320;PMS7003;66382;52.252;8.780;2023-06-24T01:13:20;8.00;8.00;6.00
77320;PMS7003;66382;52.252;8.780;2023-06-24T01:15:46;8.25;8.25;6.00
77320;PMS7003;66382;52.252;8.780;2023-06-24T01:18:16;7.50;7.50;6.00
77320;PMS7003;66382;52.252;8.780;2023-06-24T01:20:50;8.00;8.00;6.75
77320;PMS7003;66382;52.252;8.780;2023-06-24T01:23:24;7.50;7.50;6.00
77320;PMS7003;66382;52.252;8.780;2023-06-24T01:26:14;10.50;10.50;7.00
77320;PMS7003;66382;52.252;8.780;2023-06-24T01:29:00;9.50;7.25;6.25
77320;PMS7003;66382;52.252;8.780;2023-06-24T01:31:42;8.00;8.00;6.50
77320;PMS7003;66382;52.252;8.780;2023-06-24T01:34:15;8.50;8.50;6.25
77320;PMS7003;66382;52.252;8.780;2023-06-24T01:36:51;8.00;8.00;7.00
77320;PMS7003;66382;52.252;8.780;2023-06-24T01:39:25;8.00;8.00;6.00
77320;PMS7003;66382;52.252;8.780;2023-06-24T01:41:59;8.00;8.00;6.00
77320;PMS7003;66382;52.252;8.780;2023-06-24T01:44:31;8.00;8.00;6.25
77320;PMS7003;66382;52.252;8.780;2023-06-24T01:47:00;9.00;9.00;7.00
77320;PMS7003;66382;52.252;8.780;2023-06-24T01:49:30;8.00;8.00;7.00
77320;PMS7003;66382;52.252;8.780;2023-06-24T01:51:57;9.50;9.50;7.75
77320;PMS7003;66382;52.252;8.780;2023-06-24T01:54:24;8.00;8.00;6.75
77320;PMS7003;66382;52.252;8.780;2023-06-24T01:56:53;10.50;10.50;8.00
77320;PMS7003;66382;52.252;8.780;2023-06-24T01:59:22;9.50;9.50;7.25
77320;PMS7003;66382;52.252;8.780;2023-06-24T02:01:50;9.25;9.25;6.00
77320;PMS7003;66382;52.252;8.780;2023-06-24T02:04:18;10.25;10.25;8.00
77320;PMS7003;66382;52.252;8.780;2023-06-24T02:06:45;8.00;8.00;6.00
77320;PMS7003;66382;52.252;8.780;2023-06-24T02:09:12;8.00;8.00;6.00
77320;PMS7003;66382;52.252;8.780;2023-06-24T02:11:43;7.75;7.25;6.25
77320;PMS7003;66382;52.252;8.780;2023-06-24T02:14:09;8.00;8.00;6.25
77320;PMS7003;66382;52.252;8.780;2023-06-24T02:16:37;7.75;7.50;6.00
77320;PMS7003;66382;52.252;8.780;2023-06-24T02:19:05;9.00;9.00;6.50
77320;PMS7003;66382;52.252;8.780;2023-06-24T02:21:33;7.50;7.50;6.00
77320;PMS7003;66382;52.252;8.780;2023-06-24T02:24:00;9.25;9.25;8.00
77320;PMS7003;66382;52.252;8.780;2023-06-24T02:26:27;8.75;8.75;6.25
77320;PMS7003;66382;52.252;8.780;2023-06-24T02:28:53;9.33;9.33;7.00
77320;PMS7003;66382;52.252;8.780;2023-06-24T02:31:20;6.25;6.25;3.75
77320;PMS7003;66382;52.252;8.780;2023-06-24T02:33:46;8.00;8.00;7.00
77320;PMS7003;66382;52.252;8.780;2023-06-24T02:36:12;7.33;7.33;6.00
77320;PMS7003;66382;52.252;8.780;2023-06-24T02:38:39;9.67;9.67;7.33
77320;PMS7003;66382;52.252;8.780;2023-06-24T02:41:05;9.50;9.50;7.00
77320;PMS7003;66382;52.252;8.780;2023-06-24T02:43:31;10.00;10.00;7.00
77320;PMS7003;66382;52.252;8.780;2023-06-24T02:45:57;9.75;9.75;8.25
77320;PMS7003;66382;52.252;8.780;2023-06-24T02:48:25;8.75;8.75;6.00
77320;PMS7003;66382;52.252;8.780;2023-06-24T02:50:51;5.75;5.75;3.75
77320;PMS7003;66382;52.252;8.780;2023-06-24T02:53:17;9.25;9.25;6.75
77320;PMS7003;66382;52.252;8.780;2023-06-24T02:55:44;10.00;10.00;8.33
77320;PMS7003;66382;52.252;8.780;2023-06-24T02:58:11;10.25;10.25;8.25
77320;PMS7003;66382;52.252;8.780;2023-06-24T03:00:38;8.50;8.50;7.00
77320;PMS7003;66382;52.252;8.780;2023-06-24T03:03:04;6.00;6.00;5.00
77320;PMS7003;66382;52.252;8.780;2023-06-24T03:05:32;9.25;9.25;6.00
77320;PMS7003;66382;52.252;8.780;2023-06-24T03:07:58;13.25;12.25;9.50
77320;PMS7003;66382;52.252;8.780;2023-06-24T03:10:25;8.00;8.00;7.00
77320;PMS7003;66382;52.252;8.780;2023-06-24T03:12:52;7.00;7.00;6.33
77320;PMS7003;66382;52.252;8.780;2023-06-24T03:15:18;9.25;9.25;7.75
77320;PMS7003;66382;52.252;8.780;2023-06-24T03:17:44;11.00;11.00;8.33
77320;PMS7003;66382;52.252;8.780;2023-06-24T03:20:10;10.00;8.33;6.67
77320;PMS7003;66382;52.252;8.780;2023-06-24T03:22:36;9.50;9.50;7.25
77320;PMS7003;66382;52.252;8.780;2023-06-24T03:25:02;10.67;10.67;9.00
77320;PMS7003;66382;52.252;8.780;2023-06-24T03:27:28;10.00;10.00;6.75
77320;PMS7003;66382;52.252;8.780;2023-06-24T03:29:55;8.33;8.33;6.33
77320;PMS7003;66382;52.252;8.780;2023-06-24T03:32:20;7.50;7.50;6.50
77320;PMS7003;66382;52.252;8.780;2023-06-24T03:34:46;10.33;10.33;7.00
77320;PMS7003;66382;52.252;8.780;2023-06-24T03:37:12;9.67;9.67;6.67
77320;PMS7003;66382;52.252;8.780;2023-06-24T03:39:38;8.33;8.33;6.67
77320;PMS7003;66382;52.252;8.780;2023-06-24T03:42:03;8.33;8.33;6.67
77320;PMS7003;66382;52.252;8.780;2023-06-24T03:44:29;10.75;10.75;7.75
77320;PMS7003;66382;52.252;8.780;2023-06-24T03:46:57;10.67;10.67;6.33
77320;PMS7003;66382;52.252;8.780;2023-06-24T03:49:22;7.00;7.00;6.00
77320;PMS7003;66382;52.252;8.780;2023-06-24T03:51:48;9.00;9.00;7.00
77320;PMS7003;66382;52.252;8.780;2023-06-24T03:54:14;7.00;7.00;6.00
77320;PMS7003;66382;52.252;8.780;2023-06-24T03:56:39;8.33;8.33;5.00
77320;PMS7003;66382;52.252;8.780;2023-06-24T03:59:05;7.33;7.33;6.00
77320;PMS7003;66382;52.252;8.780;2023-06-24T04:01:31;9.33;9.33;7.00
77320;PMS7003;66382;52.252;8.780;2023-06-24T04:03:58;8.00;8.00;6.75
77320;PMS7003;66382;52.252;8.780;2023-06-24T04:06:24;11.25;11.25;8.00
77320;PMS7003;66382;52.252;8.780;2023-06-24T04:08:51;7.33;7.33;6.00
77320;PMS7003;66382;52.252;8.780;2023-06-24T04:11:17;11.75;11.75;8.50
77320;PMS7003;66382;52.252;8.780;2023-06-24T04:13:42;10.67;10.67;8.00
77320;PMS7003;66382;52.252;8.780;2023-06-24T04:16:09;8.50;8.50;7.50
77320;PMS7003;66382;52.252;8.780;2023-06-24T04:18:35;9.67;9.67;8.00
77320;PMS7003;66382;52.252;8.780;2023-06-24T04:21:02;9.33;9.33;7.00
77320;PMS7003;66382;52.252;8.780;2023-06-24T04:23:28;9.00;9.00;7.00
77320;PMS7003;66382;52.252;8.780;2023-06-24T04:25:53;9.67;9.67;7.00
77320;PMS7003;66382;52.252;8.780;2023-06-24T04:28:19;10.67;10.67;8.00
77320;PMS7003;66382;52.252;8.780;2023-06-24T04:30:45;8.00;8.00;6.00
77320;PMS7003;66382;52.252;8.780;2023-06-24T04:33:10;8.33;8.33;6.00
77320;PMS7003;66382;52.252;8.780;2023-06-24T04:35:36;9.67;9.67;7.33
77320;PMS7003;66382;52.252;8.780;2023-06-24T04:38:03;8.33;8.33;7.00
77320;PMS7003;66382;52.252;8.780;2023-06-24T04:40:29;10.25;10.25;7.75
77320;PMS7003;66382;52.252;8.780;2023-06-24T04:42:55;10.00;10.00;8.00
77320;PMS7003;66382;52.252;8.780;2023-06-24T04:45:20;11.33;11.33;9.33
77320;PMS7003;66382;52.252;8.780;2023-06-24T04:47:46;9.00;9.00;7.00
77320;PMS7003;66382;52.252;8.780;2023-06-24T04:50:12;8.33;8.33;6.33
77320;PMS7003;66382;52.252;8.780;2023-06-24T04:52:37;7.67;7.67;6.00
77320;PMS7003;66382;52.252;8.780;2023-06-24T04:55:06;8.75;8.75;6.25
77320;PMS7003;66382;52.252;8.780;2023-06-24T04:57:32;8.75;8.75;6.75
77320;PMS7003;66382;52.252;8.780;2023-06-24T04:59:58;9.00;9.00;7.00
77320;PMS7003;66382;52.252;8.780;2023-06-24T05:02:24;9.00;9.00;7.33
77320;PMS7003;66382;52.252;8.780;2023-06-24T05:04:51;8.80;8.80;6.20
77320;PMS7003;66382;52.252;8.780;2023-06-24T05:07:17;7.20;7.20;6.00
77320;PMS7003;66382;52.252;8.780;2023-06-24T05:09:43;9.00;9.00;7.00
77320;PMS7003;66382;52.252;8.780;2023-06-24T05:12:11;9.00;9.00;6.75
77320;PMS7003;66382;52.252;8.780;2023-06-24T05:14:37;9.25;9.25;7.50
77320;PMS7003;66382;52.252;8.780;2023-06-24T05:17:03;9.33;9.33;7.67
77320;PMS7003;66382;52.252;8.780;2023-06-24T05:19:29;11.50;10.75;8.00
77320;PMS7003;66382;52.252;8.780;2023-06-24T05:21:55;9.00;9.00;7.00
77320;PMS7003;66382;52.252;8.780;2023-06-24T05:24:20;8.00;8.00;7.00
77320;PMS7003;66382;52.252;8.780;2023-06-24T05:26:48;10.00;10.00;8.67
77320;PMS7003;66382;52.252;8.780;2023-06-24T05:29:16;8.50;8.50;7.25
77320;PMS7003;66382;52.252;8.780;2023-06-24T05:31:42;8.75;8.75;7.25
77320;PMS7003;66382;52.252;8.780;2023-06-24T05:34:08;10.00;10.00;7.25
77320;PMS7003;66382;52.252;8.780;2023-06-24T05:36:34;11.00;11.00;9.00
77320;PMS7003;66382;52.252;8.780;2023-06-24T05:39:00;7.00;7.00;6.50
77320;PMS7003;66382;52.252;8.780;2023-06-24T05:41:26;11.00;11.00;9.00
77320;PMS7003;66382;52.252;8.780;2023-06-24T05:44:00;9.00;9.00;7.00
77320;PMS7003;66382;52.252;8.780;2023-06-24T05:46:28;9.00;9.00;8.00
77320;PMS7003;66382;52.252;8.780;2023-06-24T05:48:54;9.50;9.50;8.00
77320;PMS7003;66382;52.252;8.780;2023-06-24T05:51:20;9.00;9.00;7.67
77320;PMS7003;66382;52.252;8.780;2023-06-24T05:53:45;10.33;10.33;8.00
77320;PMS7003;66382;52.252;8.780;2023-06-24T05:56:11;8.33;7.33;6.00
77320;PMS7003;66382;52.252;8.780;2023-06-24T05:58:37;11.33;11.00;8.67
77320;PMS7003;66382;52.252;8.780;2023-06-24T06:01:05;11.00;11.00;8.75
77320;PMS7003;66382;52.252;8.780;2023-06-24T06:03:32;9.33;9.33;7.67
77320;PMS7003;66382;52.252;8.780;2023-06-24T06:05:57;9.75;9.75;7.50
77320;PMS7003;66382;52.252;8.780;2023-06-24T06:08:23;10.00;10.00;8.00
77320;PMS7003;66382;52.252;8.780;2023-06-24T06:10:49;10.67;10.67;7.00
77320;PMS7003;66382;52.252;8.780;2023-06-24T06:13:15;10.00;10.00;8.00
77320;PMS7003;66382;52.252;8.780;2023-06-24T06:15:40;10.33;10.33;8.67
77320;PMS7003;66382;52.252;8.780;2023-06-24T06:18:06;9.67;9.67;7.67
77320;PMS7003;66382;52.252;8.780;2023-06-24T06:20:33;11.67;11.67;9.00
77320;PMS7003;66382;52.252;8.780;2023-06-24T06:22:59;11.25;10.75;8.25
77320;PMS7003;66382;52.252;8.780;2023-06-24T06:25:24;11.00;11.00;7.33
77320;PMS7003;66382;52.252;8.780;2023-06-24T06:27:50;11.00;11.00;8.00
77320;PMS7003;66382;52.252;8.780;2023-06-24T06:30:16;11.00;11.00;7.67
77320;PMS7003;66382;52.252;8.780;2023-06-24T06:32:41;10.00;10.00;7.67
77320;PMS7003;66382;52.252;8.780;2023-06-24T06:35:07;9.33;9.33;7.00
77320;PMS7003;66382;52.252;8.780;2023-06-24T06:37:34;11.33;11.33;8.33
77320;PMS7003;66382;52.252;8.780;2023-06-24T06:40:00;7.75;7.75;6.00
77320;PMS7003;66382;52.252;8.780;2023-06-24T06:42:26;9.50;9.50;8.00
77320;PMS7003;66382;52.252;8.780;2023-06-24T06:44:52;10.33;10.33;9.00
77320;PMS7003;66382;52.252;8.780;2023-06-24T06:47:18;10.67;10.67;8.00
77320;PMS7003;66382;52.252;8.780;2023-06-24T06:49:43;13.33;12.33;7.67
77320;PMS7003;66382;52.252;8.780;2023-06-24T06:52:09;10.00;10.00;8.33
77320;PMS7003;66382;52.252;8.780;2023-06-24T06:54:36;11.00;11.00;8.00
77320;PMS7003;66382;52.252;8.780;2023-06-24T06:57:02;12.75;12.75;10.00
77320;PMS7003;66382;52.252;8.780;2023-06-24T06:59:28;12.25;12.25;10.00
77320;PMS7003;66382;52.252;8.780;2023-06-24T07:01:54;14.67;14.67;11.00
77320;PMS7003;66382;52.252;8.780;2023-06-24T07:04:19;13.33;13.33;8.67
77320;PMS7003;66382;52.252;8.780;2023-06-24T07:06:45;11.00;11.00;9.00
77320;PMS7003;66382;52.252;8.780;2023-06-24T07:09:11;13.67;12.00;8.33
77320;PMS7003;66382;52.252;8.780;2023-06-24T07:11:38;10.00;9.00;7.00
77320;PMS7003;66382;52.252;8.780;2023-06-24T07:14:03;9.75;9.75;8.25
77320;PMS7003;66382;52.252;8.780;2023-06-24T07:16:29;10.67;10.67;8.00
77320;PMS7003;66382;52.252;8.780;2023-06-24T07:18:55;11.33;11.33;8.67
77320;PMS7003;66382;52.252;8.780;2023-06-24T07:21:21;12.00;12.00;9.33
77320;PMS7003;66382;52.252;8.780;2023-06-24T07:23:46;11.33;11.33;9.67
77320;PMS7003;66382;52.252;8.780;2023-06-24T07:26:12;11.00;11.00;7.00
77320;PMS7003;66382;52.252;8.780;2023-06-24T07:28:39;15.33;14.33;10.00
77320;PMS7003;66382;52.252;8.780;2023-06-24T07:31:05;13.00;12.50;10.25
77320;PMS7003;66382;52.252;8.780;2023-06-24T07:33:30;13.33;13.33;10.00
77320;PMS7003;66382;52.252;8.780;2023-06-24T07:35:56;13.00;13.00;8.00
77320;PMS7003;66382;52.252;8.780;2023-06-24T07:38:22;12.33;12.33;10.00
77320;PMS7003;66382;52.252;8.780;2023-06-24T07:40:48;11.33;11.33;9.00
77320;PMS7003;66382;52.252;8.780;2023-06-24T07:43:13;13.00;13.00;10.00
77320;PMS7003;66382;52.252;8.780;2023-06-24T07:45:40;12.00;12.00;10.00
77320;PMS7003;66382;52.252;8.780;2023-06-24T07:48:06;12.50;12.50;10.00
77320;PMS7003;66382;52.252;8.780;2023-06-24T07:50:32;11.67;11.67;8.33
77320;PMS7003;66382;52.252;8.780;2023-06-24T07:52:58;12.00;12.00;10.00
77320;PMS7003;66382;52.252;8.780;2023-06-24T07:55:24;13.33;10.33;9.33
77320;PMS7003;66382;52.252;8.780;2023-06-24T07:57:50;12.00;12.00;9.00
77320;PMS7003;66382;52.252;8.780;2023-06-24T08:00:16;14.67;14.67;10.33
77320;PMS7003;66382;52.252;8.780;2023-06-24T08:02:43;14.00;14.00;9.25
77320;PMS7003;66382;52.252;8.780;2023-06-24T08:05:09;13.40;13.40;10.40
77320;PMS7003;66382;52.252;8.780;2023-06-24T08:07:35;14.33;14.33;9.67
77320;PMS7003;66382;52.252;8.780;2023-06-24T08:10:00;14.00;14.00;11.00
77320;PMS7003;66382;52.252;8.780;2023-06-24T08:12:26;11.50;11.50;9.50
77320;PMS7003;66382;52.252;8.780;2023-06-24T08:14:52;12.67;11.67;9.33
77320;PMS7003;66382;52.252;8.780;2023-06-24T08:17:17;12.00;12.00;9.00
77320;PMS7003;66382;52.252;8.780;2023-06-24T08:19:45;13.25;13.25;9.00
77320;PMS7003;66382;52.252;8.780;2023-06-24T08:22:11;12.00;12.00;10.00
77320;PMS7003;66382;52.252;8.780;2023-06-24T08:24:36;12.50;12.50;8.75
77320;PMS7003;66382;52.252;8.780;2023-06-24T08:27:02;9.75;9.75;8.00
77320;PMS7003;66382;52.252;8.780;2023-06-24T08:29:28;13.40;13.40;10.80
77320;PMS7003;66382;52.252;8.780;2023-06-24T08:31:54;9.75;9.75;7.75
77320;PMS7003;66382;52.252;8.780;2023-06-24T08:34:20;13.00;13.00;8.75
77320;PMS7003;66382;52.252;8.780;2023-06-24T08:36:47;13.00;13.00;8.25
77320;PMS7003;66382;52.252;8.780;2023-06-24T08:39:14;11.00;11.00;8.20
77320;PMS7003;66382;52.252;8.780;2023-06-24T08:41:40;12.00;12.00;9.75
77320;PMS7003;66382;52.252;8.780;2023-06-24T08:44:05;12.00;12.00;9.75
77320;PMS7003;66382;52.252;8.780;2023-06-24T08:46:31;11.00;11.00;9.00
77320;PMS7003;66382;52.252;8.780;2023-06-24T08:48:59;10.60;10.60;6.80
77320;PMS7003;66382;52.252;8.780;2023-06-24T08:51:33;10.80;10.80;8.60
77320;PMS7003;66382;52.252;8.780;2023-06-24T08:54:06;10.60;10.60;7.80
77320;PMS7003;66382;52.252;8.780;2023-06-24T08:56:34;9.20;9.20;7.40
77320;PMS7003;66382;52.252;8.780;2023-06-24T08:59:00;9.50;9.50;7.00
77320;PMS7003;66382;52.252;8.780;2023-06-24T09:01:26;9.00;9.00;7.00
77320;PMS7003;66382;52.252;8.780;2023-06-24T09:03:52;10.20;10.20;9.00
77320;PMS7003;66382;52.252;8.780;2023-06-24T09:06:18;8.00;8.00;6.25
77320;PMS7003;66382;52.252;8.780;2023-06-24T09:08:51;9.00;9.00;7.00
77320;PMS7003;66382;52.252;8.780;2023-06-24T09:11:22;9.40;9.40;8.00
77320;PMS7003;66382;52.252;8.780;2023-06-24T09:13:50;10.00;10.00;8.00
77320;PMS7003;66382;52.252;8.780;2023-06-24T09:16:20;9.80;9.80;8.00
77320;PMS7003;66382;52.252;8.780;2023-06-24T09:18:47;9.00;9.00;8.00
77320;PMS7003;66382;52.252;8.780;2023-06-24T09:21:13;10.00;10.00;7.60
77320;PMS7003;66382;52.252;8.780;2023-06-24T09:23:39;7.75;7.75;6.50
77320;PMS7003;66382;52.252;8.780;2023-06-24T09:26:04;8.75;8.75;7.25
77320;PMS7003;66382;52.252;8.780;2023-06-24T09:28:36;10.20;10.20;8.20
77320;PMS7003;66382;52.252;8.780;2023-06-24T09:31:08;6.80;6.80;5.40
77320;PMS7003;66382;52.252;8.780;2023-06-24T09:33:35;9.20;9.20;7.80
77320;PMS7003;66382;52.252;8.780;2023-06-24T09:36:01;10.00;10.00;7.50
77320;PMS7003;66382;52.252;8.780;2023-06-24T09:38:34;9.00;9.00;8.00
77320;PMS7003;66382;52.252;8.780;2023-06-24T09:41:01;7.20;7.20;6.00
77320;PMS7003;66382;52.252;8.780;2023-06-24T09:43:27;8.20;8.20;6.60
77320;PMS7003;66382;52.252;8.780;2023-06-24T09:45:54;8.25;8.25;7.25
77320;PMS7003;66382;52.252;8.780;2023-06-24T09:48:20;7.80;7.80;6.20
77320;PMS7003;66382;52.252;8.780;2023-06-24T09:50:46;5.50;5.00;4.00
77320;PMS7003;66382;52.252;8.780;2023-06-24T09:53:12;6.20;6.20;5.20
77320;PMS7003;66382;52.252;8.780;2023-06-24T09:55:39;8.00;8.00;7.20
77320;PMS7003;66382;52.252;8.780;2023-06-24T09:58:05;6.00;6.00;5.40
77320;PMS7003;66382;52.252;8.780;2023-06-24T10:00:31;9.80;9.80;7.60
77320;PMS7003;66382;52.252;8.780;2023-06-24T10:02:58;7.00;7.00;6.00
77320;PMS7003;66382;52.252;8.780;2023-06-24T10:05:24;6.80;6.80;6.20
77320;PMS7003;66382;52.252;8.780;2023-06-24T10:07:50;4.50;4.50;3.75
77320;PMS7003;66382;52.252;8.780;2023-06-24T10:10:16;7.50;7.50;6.00
77320;PMS7003;66382;52.252;8.780;2023-06-24T10:12:43;9.00;9.00;6.00
77320;PMS7003;66382;52.252;8.780;2023-06-24T10:15:09;7.50;7.50;6.50
77320;PMS7003;66382;52.252;8.780;2023-06-24T10:17:35;6.80;6.80;5.20
77320;PMS7003;66382;52.252;8.780;2023-06-24T10:20:04;7.00;7.00;6.25
77320;PMS7003;66382;52.252;8.780;2023-06-24T10:22:31;9.00;9.00;7.40
77320;PMS7003;66382;52.252;8.780;2023-06-24T10:24:59;7.60;7.60;6.60
77320;PMS7003;66382;52.252;8.780;2023-06-24T10:27:25;8.40;8.40;6.40
77320;PMS7003;66382;52.252;8.780;2023-06-24T10:29:51;8.25;8.25;7.00
77320;PMS7003;66382;52.252;8.780;2023-06-24T10:32:18;11.80;11.80;9.80
77320;PMS7003;66382;52.252;8.780;2023-06-24T10:34:47;7.40;7.40;6.80
77320;PMS7003;66382;52.252;8.780;2023-06-24T10:37:20;9.20;9.00;7.00
77320;PMS7003;66382;52.252;8.780;2023-06-24T10:39:48;10.40;10.40;9.40
77320;PMS7003;66382;52.252;8.780;2023-06-24T10:45:17;12.60;12.60;11.20
77320;PMS7003;66382;52.252;8.780;2023-06-24T10:47:44;12.80;12.80;9.00
77320;PMS7003;66382;52.252;8.780;2023-06-24T10:50:11;8.40;8.40;8.00
77320;PMS7003;66382;52.252;8.780;2023-06-24T10:52:40;9.60;9.60;7.80
77320;PMS7003;66382;52.252;8.780;2023-06-24T10:55:07;9.40;9.40;6.80
77320;PMS7003;66382;52.252;8.780;2023-06-24T10:57:33;12.20;12.20;9.60
77320;PMS7003;66382;52.252;8.780;2023-06-24T11:00:00;13.00;13.00;9.50
77320;PMS7003;66382;52.252;8.780;2023-06-24T11:02:27;9.20;9.20;8.20
77320;PMS7003;66382;52.252;8.780;2023-06-24T11:04:53;8.80;8.80;7.20
77320;PMS7003;66382;52.252;8.780;2023-06-24T11:07:20;10.60;10.60;8.40
77320;PMS7003;66382;52.252;8.780;2023-06-24T11:09:52;9.40;9.40;6.00
77320;PMS7003;66382;52.252;8.780;2023-06-24T11:12:18;12.40;12.40;9.60
77320;PMS7003;66382;52.252;8.780;2023-06-24T11:14:44;13.20;13.20;10.60
77320;PMS7003;66382;52.252;8.780;2023-06-24T11:17:10;12.20;12.20;9.80
77320;PMS7003;66382;52.252;8.780;2023-06-24T11:19:36;10.75;10.75;8.50
77320;PMS7003;66382;52.252;8.780;2023-06-24T11:22:03;11.00;11.00;9.00
77320;PMS7003;66382;52.252;8.780;2023-06-24T11:24:29;13.00;13.00;10.75
77320;PMS7003;66382;52.252;8.780;2023-06-24T11:26:56;14.25;14.25;11.75
77320;PMS7003;66382;52.252;8.780;2023-06-24T11:29:22;11.80;11.80;9.60
77320;PMS7003;66382;52.252;8.780;2023-06-24T11:31:48;12.40;12.40;10.20
77320;PMS7003;66382;52.252;8.780;2023-06-24T11:34:14;10.00;10.00;9.20
77320;PMS7003;66382;52.252;8.780;2023-06-24T11:36:40;9.25;9.25;7.50
77320;PMS7003;66382;52.252;8.780;2023-06-24T11:39:06;10.80;10.80;8.00
77320;PMS7003;66382;52.252;8.780;2023-06-24T11:41:31;12.00;12.00;10.00
77320;PMS7003;66382;52.252;8.780;2023-06-24T11:43:58;11.50;11.50;10.25
77320;PMS7003;66382;52.252;8.780;2023-06-24T11:46:24;11.00;11.00;8.80
77320;PMS7003;66382;52.252;8.780;2023-06-24T11:48:51;12.80;12.80;10.20
77320;PMS7003;66382;52.252;8.780;2023-06-24T11:51:17;12.75;12.75;8.75
77320;PMS7003;66382;52.252;8.780;2023-06-24T11:53:43;12.00;12.00;10.25
77320;PMS7003;66382;52.252;8.780;2023-06-24T11:56:09;12.20;12.20;10.60
77320;PMS7003;66382;52.252;8.780;2023-06-24T11:58:35;13.00;13.00;10.00
77320;PMS7003;66382;52.252;8.780;2023-06-24T12:01:02;10.50;10.50;8.50
77320;PMS7003;66382;52.252;8.780;2023-06-24T12:03:29;12.00;12.00;9.80
77320;PMS7003;66382;52.252;8.780;2023-06-24T12:05:55;12.40;12.40;9.60
77320;PMS7003;66382;52.252;8.780;2023-06-24T12:08:20;13.50;13.50;11.25
77320;PMS7003;66382;52.252;8.780;2023-06-24T12:10:46;11.00;11.00;9.25
77320;PMS7003;66382;52.252;8.780;2023-06-24T12:13:12;11.25;11.25;10.00
77320;PMS7003;66382;52.252;8.780;2023-06-24T12:15:38;13.00;13.00;10.00
77320;PMS7003;66382;52.252;8.780;2023-06-24T12:18:05;13.50;13.50;10.75
77320;PMS7003;66382;52.252;8.780;2023-06-24T12:20:31;9.60;9.60;6.60
77320;PMS7003;66382;52.252;8.780;2023-06-24T12:22:56;10.75;10.75;9.25
77320;PMS7003;66382;52.252;8.780;2023-06-24T12:25:22;10.00;10.00;8.50
77320;PMS7003;66382;52.252;8.780;2023-06-24T12:27:48;12.25;12.25;10.00
77320;PMS7003;66382;52.252;8.780;2023-06-24T12:30:15;13.40;12.80;10.40
77320;PMS7003;66382;52.252;8.780;2023-06-24T12:32:42;9.20;9.20;8.20
77320;PMS7003;66382;52.252;8.780;2023-06-24T12:35:09;10.80;10.80;9.20
77320;PMS7003;66382;52.252;8.780;2023-06-24T12:37:35;10.40;10.40;8.00
77320;PMS7003;66382;52.252;8.780;2023-06-24T12:40:02;12.00;12.00;11.00
77320;PMS7003;66382;52.252;8.780;2023-06-24T12:42:28;8.60;8.60;7.80
77320;PMS7003;66382;52.252;8.780;2023-06-24T12:44:54;10.25;10.25;9.00
77320;PMS7003;66382;52.252;8.780;2023-06-24T12:47:20;12.00;12.00;9.75
77320;PMS7003;66382;52.252;8.780;2023-06-24T12:49:45;11.00;11.00;9.25
77320;PMS7003;66382;52.252;8.780;2023-06-24T12:52:13;11.00;11.00;9.00
77320;PMS7003;66382;52.252;8.780;2023-06-24T12:54:40;10.60;10.60;8.40
77320;PMS7003;66382;52.252;8.780;2023-06-24T12:57:06;13.00;13.00;10.80
77320;PMS7003;66382;52.252;8.780;2023-06-24T12:59:32;10.25;10.25;8.50
77320;PMS7003;66382;52.252;8.780;2023-06-24T13:01:57;11.00;11.00;10.50
77320;PMS7003;66382;52.252;8.780;2023-06-24T13:04:23;13.25;13.25;10.25
77320;PMS7003;66382;52.252;8.780;2023-06-24T13:06:49;10.00;10.00;9.25
77320;PMS7003;66382;52.252;8.780;2023-06-24T13:09:17;11.00;11.00;9.00
77320;PMS7003;66382;52.252;8.780;2023-06-24T13:11:43;11.20;11.20;10.00
77320;PMS7003;66382;52.252;8.780;2023-06-24T13:14:09;11.00;11.00;8.25
77320;PMS7003;66382;52.252;8.780;2023-06-24T13:16:34;14.25;14.25;12.00
77320;PMS7003;66382;52.252;8.780;2023-06-24T13:19:00;10.25;10.25;9.00
77320;PMS7003;66382;52.252;8.780;2023-06-24T13:21:26;14.00;14.00;9.00
77320;PMS7003;66382;52.252;8.780;2023-06-24T13:23:52;11.25;11.25;10.25
77320;PMS7003;66382;52.252;8.780;2023-06-24T13:26:19;11.00;11.00;8.25
77320;PMS7003;66382;52.252;8.780;2023-06-24T13:28:45;12.20;12.20;10.20
77320;PMS7003;66382;52.252;8.780;2023-06-24T13:31:10;12.50;12.50;10.75
77320;PMS7003;66382;52.252;8.780;2023-06-24T13:33:36;12.20;12.20;10.00
77320;PMS7003;66382;52.252;8.780;2023-06-24T13:36:03;8.25;8.25;7.50
77320;PMS7003;66382;52.252;8.780;2023-06-24T13:38:30;11.00;11.00;9.00
77320;PMS7003;66382;52.252;8.780;2023-06-24T13:40:55;12.75;12.75;10.75
77320;PMS7003;66382;52.252;8.780;2023-06-24T13:43:22;12.50;12.50;10.50
77320;PMS7003;66382;52.252;8.780;2023-06-24T13:45:48;12.20;12.20;9.60
77320;PMS7003;66382;52.252;8.780;2023-06-24T13:48:14;10.75;10.75;9.50
77320;PMS7003;66382;52.252;8.780;2023-06-24T13:50:40;10.75;10.75;9.25
77320;PMS7003;66382;52.252;8.780;2023-06-24T13:53:05;13.25;13.25;11.00
77320;PMS7003;66382;52.252;8.780;2023-06-24T13:55:31;13.00;13.00;11.00
77320;PMS7003;66382;52.252;8.780;2023-06-24T13:57:57;13.00;13.00;12.00
77320;PMS7003;66382;52.252;8.780;2023-06-24T14:00:24;13.00;13.00;12.25
77320;PMS7003;66382;52.252;8.780;2023-06-24T14:02:49;14.20;14.20;12.00
77320;PMS7003;66382;52.252;8.780;2023-06-24T14:05:15;13.25;13.25;12.00
77320;PMS7003;66382;52.252;8.780;2023-06-24T14:07:41;16.00;16.00;13.25